sensor_id;sensor_type;location;lat;lon;timestamp;P1;durP1;ratioP1;P2;durP2;ratioP2
15818;SDS011;8010;53.986;12.106;2022-08-21T00:01:22;4.70;;;1.70;;
15818;SDS011;8010;53.986;12.106;2022-08-21T00:03:50;4.97;;;1.77;;
15818;SDS011;8010;53.986;12.106;2022-08-21T00:06:16;5.23;;;1.73;;
15818;SDS011;8010;53.986;12.106;2022-08-21T00:08:42;6.97;;;1.60;;
15818;SDS011;8010;53.986;12.106;2022-08-21T00:11:08;2.43;;;1.40;;
15818;SDS011;8010;53.986;12.106;2022-08-21T00:13:34;6.27;;;1.50;;
15818;SDS011;8010;53.986;12.106;2022-08-21T00:16:00;3.43;;;1.47;;
15818;SDS011;8010;53.986;12.106;2022-08-21T00:18:27;3.17;;;1.60;;
15818;SDS011;8010;53.986;12.106;2022-08-21T00:20:53;3.77;;;1.33;;
15818;SDS011;8010;53.986;12.106;2022-08-21T00:23:18;3.40;;;1.80;;
15818;SDS011;8010;53.986;12.106;2022-08-21T00:25:44;4.77;;;1.33;;
15818;SDS011;8010;53.986;12.106;2022-08-21T00:28:10;4.07;;;1.40;;
15818;SDS011;8010;53.986;12.106;2022-08-21T00:30:37;2.57;;;1.10;;
15818;SDS011;8010;53.986;12.106;2022-08-21T00:33:04;5.30;;;1.50;;
15818;SDS011;8010;53.986;12.106;2022-08-21T00:35:32;4.17;;;1.60;;
15818;SDS011;8010;53.986;12.106;2022-08-21T00:37:59;6.47;;;1.67;;
15818;SDS011;8010;53.986;12.106;2022-08-21T00:40:30;3.67;;;1.50;;
15818;SDS011;8010;53.986;12.106;2022-08-21T00:42:58;5.47;;;1.73;;
15818;SDS011;8010;53.986;12.106;2022-08-21T00:45:25;4.33;;;1.30;;
15818;SDS011;8010;53.986;12.106;2022-08-21T00:47:52;5.33;;;1.63;;
15818;SDS011;8010;53.986;12.106;2022-08-21T00:50:20;2.30;;;1.27;;
15818;SDS011;8010;53.986;12.106;2022-08-21T00:52:46;2.30;;;1.40;;
15818;SDS011;8010;53.986;12.106;2022-08-21T00:55:12;7.00;;;1.40;;
15818;SDS011;8010;53.986;12.106;2022-08-21T00:57:49;4.47;;;1.40;;
15818;SDS011;8010;53.986;12.106;2022-08-21T01:00:19;3.63;;;1.37;;
15818;SDS011;8010;53.986;12.106;2022-08-21T01:02:48;2.53;;;1.40;;
15818;SDS011;8010;53.986;12.106;2022-08-21T01:05:14;1.87;;;1.20;;
15818;SDS011;8010;53.986;12.106;2022-08-21T01:07:40;5.50;;;1.60;;
15818;SDS011;8010;53.986;12.106;2022-08-21T01:10:07;3.30;;;1.40;;
15818;SDS011;8010;53.986;12.106;2022-08-21T01:12:33;5.87;;;1.73;;
15818;SDS011;8010;53.986;12.106;2022-08-21T01:15:01;3.90;;;1.60;;
15818;SDS011;8010;53.986;12.106;2022-08-21T01:17:30;6.57;;;1.63;;
15818;SDS011;8010;53.986;12.106;2022-08-21T01:19:59;6.23;;;1.50;;
15818;SDS011;8010;53.986;12.106;2022-08-21T01:22:28;5.87;;;1.63;;
15818;SDS011;8010;53.986;12.106;2022-08-21T01:24:53;3.77;;;1.60;;
15818;SDS011;8010;53.986;12.106;2022-08-21T01:27:19;5.57;;;1.80;;
15818;SDS011;8010;53.986;12.106;2022-08-21T01:29:56;4.57;;;1.70;;
15818;SDS011;8010;53.986;12.106;2022-08-21T01:32:25;5.30;;;1.60;;
15818;SDS011;8010;53.986;12.106;2022-08-21T01:34:51;3.07;;;1.93;;
15818;SDS011;8010;53.986;12.106;2022-08-21T01:37:18;3.53;;;1.60;;
15818;SDS011;8010;53.986;12.106;2022-08-21T01:39:45;3.40;;;1.40;;
15818;SDS011;8010;53.986;12.106;2022-08-21T01:42:11;5.13;;;1.70;;
15818;SDS011;8010;53.986;12.106;2022-08-21T01:44:37;3.37;;;1.43;;
15818;SDS011;8010;53.986;12.106;2022-08-21T01:47:04;6.03;;;1.60;;
15818;SDS011;8010;53.986;12.106;2022-08-21T01:49:34;4.00;;;1.63;;
15818;SDS011;8010;53.986;12.106;2022-08-21T01:52:02;4.00;;;1.37;;
15818;SDS011;8010;53.986;12.106;2022-08-21T01:54:29;4.20;;;1.60;;
15818;SDS011;8010;53.986;12.106;2022-08-21T01:56:55;4.43;;;1.63;;
15818;SDS011;8010;53.986;12.106;2022-08-21T01:59:22;4.87;;;1.80;;
15818;SDS011;8010;53.986;12.106;2022-08-21T02:01:49;2.87;;;1.90;;
15818;SDS011;8010;53.986;12.106;2022-08-21T02:04:15;5.07;;;1.97;;
15818;SDS011;8010;53.986;12.106;2022-08-21T02:06:41;6.63;;;1.80;;
15818;SDS011;8010;53.986;12.106;2022-08-21T02:09:08;3.57;;;1.80;;
15818;SDS011;8010;53.986;12.106;2022-08-21T02:11:34;5.67;;;2.37;;
15818;SDS011;8010;53.986;12.106;2022-08-21T02:14:00;3.47;;;2.03;;
15818;SDS011;8010;53.986;12.106;2022-08-21T02:16:26;5.27;;;1.67;;
15818;SDS011;8010;53.986;12.106;2022-08-21T02:18:52;4.00;;;1.87;;
15818;SDS011;8010;53.986;12.106;2022-08-21T02:21:17;6.00;;;1.83;;
15818;SDS011;8010;53.986;12.106;2022-08-21T02:23:43;3.77;;;2.10;;
15818;SDS011;8010;53.986;12.106;2022-08-21T02:26:09;4.87;;;2.30;;
15818;SDS011;8010;53.986;12.106;2022-08-21T02:28:37;4.27;;;2.13;;
15818;SDS011;8010;53.986;12.106;2022-08-21T02:31:03;3.60;;;2.40;;
15818;SDS011;8010;53.986;12.106;2022-08-21T02:33:29;4.30;;;1.90;;
15818;SDS011;8010;53.986;12.106;2022-08-21T02:35:55;3.17;;;1.87;;
15818;SDS011;8010;53.986;12.106;2022-08-21T02:38:26;9.37;;;2.20;;
15818;SDS011;8010;53.986;12.106;2022-08-21T02:40:54;3.77;;;2.03;;
15818;SDS011;8010;53.986;12.106;2022-08-21T02:43:22;3.00;;;1.90;;
15818;SDS011;8010;53.986;12.106;2022-08-21T02:45:50;5.20;;;1.90;;
15818;SDS011;8010;53.986;12.106;2022-08-21T02:48:17;3.67;;;2.00;;
15818;SDS011;8010;53.986;12.106;2022-08-21T02:50:51;3.87;;;2.00;;
15818;SDS011;8010;53.986;12.106;2022-08-21T02:53:22;2.90;;;1.90;;
15818;SDS011;8010;53.986;12.106;2022-08-21T02:55:48;2.83;;;1.80;;
15818;SDS011;8010;53.986;12.106;2022-08-21T02:58:15;4.13;;;2.00;;
15818;SDS011;8010;53.986;12.106;2022-08-21T03:00:43;3.63;;;1.83;;
15818;SDS011;8010;53.986;12.106;2022-08-21T03:03:09;6.47;;;2.00;;
15818;SDS011;8010;53.986;12.106;2022-08-21T03:05:36;2.97;;;1.90;;
15818;SDS011;8010;53.986;12.106;2022-08-21T03:08:03;3.93;;;1.90;;
15818;SDS011;8010;53.986;12.106;2022-08-21T03:10:32;6.20;;;2.33;;
15818;SDS011;8010;53.986;12.106;2022-08-21T03:12:58;3.43;;;2.27;;
15818;SDS011;8010;53.986;12.106;2022-08-21T03:15:24;2.97;;;2.00;;
15818;SDS011;8010;53.986;12.106;2022-08-21T03:17:50;2.87;;;2.00;;
15818;SDS011;8010;53.986;12.106;2022-08-21T03:20:17;6.77;;;2.50;;
15818;SDS011;8010;53.986;12.106;2022-08-21T03:22:44;3.70;;;2.20;;
15818;SDS011;8010;53.986;12.106;2022-08-21T03:25:09;4.07;;;2.37;;
15818;SDS011;8010;53.986;12.106;2022-08-21T03:27:35;3.70;;;2.27;;
15818;SDS011;8010;53.986;12.106;2022-08-21T03:30:02;6.93;;;2.43;;
15818;SDS011;8010;53.986;12.106;2022-08-21T03:32:30;5.40;;;2.23;;
15818;SDS011;8010;53.986;12.106;2022-08-21T03:34:56;4.77;;;1.97;;
15818;SDS011;8010;53.986;12.106;2022-08-21T03:37:22;3.50;;;2.03;;
15818;SDS011;8010;53.986;12.106;2022-08-21T03:39:49;4.23;;;2.13;;
15818;SDS011;8010;53.986;12.106;2022-08-21T03:42:15;5.10;;;2.23;;
15818;SDS011;8010;53.986;12.106;2022-08-21T03:44:41;4.43;;;2.20;;
15818;SDS011;8010;53.986;12.106;2022-08-21T03:47:06;4.60;;;2.40;;
15818;SDS011;8010;53.986;12.106;2022-08-21T03:49:32;4.90;;;2.60;;
15818;SDS011;8010;53.986;12.106;2022-08-21T03:51:58;2.30;;;2.00;;
15818;SDS011;8010;53.986;12.106;2022-08-21T03:54:24;2.93;;;2.10;;
15818;SDS011;8010;53.986;12.106;2022-08-21T03:56:50;4.43;;;2.10;;
15818;SDS011;8010;53.986;12.106;2022-08-21T03:59:16;3.50;;;1.93;;
15818;SDS011;8010;53.986;12.106;2022-08-21T04:04:38;3.87;;;2.10;;
15818;SDS011;8010;53.986;12.106;2022-08-21T04:07:04;2.30;;;1.67;;
15818;SDS011;8010;53.986;12.106;2022-08-21T04:09:30;2.97;;;2.03;;
15818;SDS011;8010;53.986;12.106;2022-08-21T04:11:56;2.53;;;2.00;;
15818;SDS011;8010;53.986;12.106;2022-08-21T04:14:23;4.93;;;2.50;;
15818;SDS011;8010;53.986;12.106;2022-08-21T04:16:49;4.23;;;2.53;;
15818;SDS011;8010;53.986;12.106;2022-08-21T04:19:14;4.23;;;2.83;;
15818;SDS011;8010;53.986;12.106;2022-08-21T04:21:40;6.20;;;3.00;;
15818;SDS011;8010;53.986;12.106;2022-08-21T04:24:07;7.93;;;2.50;;
15818;SDS011;8010;53.986;12.106;2022-08-21T04:26:34;5.10;;;2.73;;
15818;SDS011;8010;53.986;12.106;2022-08-21T04:29:02;4.40;;;2.57;;
15818;SDS011;8010;53.986;12.106;2022-08-21T04:31:29;5.70;;;2.70;;
15818;SDS011;8010;53.986;12.106;2022-08-21T04:33:55;3.13;;;2.70;;
15818;SDS011;8010;53.986;12.106;2022-08-21T04:36:21;5.43;;;2.63;;
15818;SDS011;8010;53.986;12.106;2022-08-21T04:38:47;5.77;;;2.50;;
15818;SDS011;8010;53.986;12.106;2022-08-21T04:41:13;3.40;;;2.20;;
15818;SDS011;8010;53.986;12.106;2022-08-21T04:43:39;4.57;;;2.50;;
15818;SDS011;8010;53.986;12.106;2022-08-21T04:46:05;3.57;;;2.70;;
15818;SDS011;8010;53.986;12.106;2022-08-21T04:48:31;6.00;;;3.00;;
15818;SDS011;8010;53.986;12.106;2022-08-21T04:53:45;4.30;;;2.57;;
15818;SDS011;8010;53.986;12.106;2022-08-21T04:56:22;5.77;;;2.90;;
15818;SDS011;8010;53.986;12.106;2022-08-21T04:58:52;5.20;;;2.80;;
15818;SDS011;8010;53.986;12.106;2022-08-21T05:01:21;3.07;;;2.70;;
15818;SDS011;8010;53.986;12.106;2022-08-21T05:03:49;2.37;;;2.10;;
15818;SDS011;8010;53.986;12.106;2022-08-21T05:06:19;4.63;;;2.47;;
15818;SDS011;8010;53.986;12.106;2022-08-21T05:08:46;4.80;;;2.30;;
15818;SDS011;8010;53.986;12.106;2022-08-21T05:11:13;3.83;;;2.30;;
15818;SDS011;8010;53.986;12.106;2022-08-21T05:13:39;7.73;;;2.90;;
15818;SDS011;8010;53.986;12.106;2022-08-21T05:16:08;4.70;;;2.77;;
15818;SDS011;8010;53.986;12.106;2022-08-21T05:18:34;4.67;;;2.47;;
15818;SDS011;8010;53.986;12.106;2022-08-21T05:20:59;4.50;;;2.60;;
15818;SDS011;8010;53.986;12.106;2022-08-21T05:23:25;5.67;;;2.63;;
15818;SDS011;8010;53.986;12.106;2022-08-21T05:25:51;3.30;;;2.50;;
15818;SDS011;8010;53.986;12.106;2022-08-21T05:28:17;4.37;;;2.60;;
15818;SDS011;8010;53.986;12.106;2022-08-21T05:30:43;3.90;;;2.90;;
15818;SDS011;8010;53.986;12.106;2022-08-21T05:33:09;8.90;;;3.23;;
15818;SDS011;8010;53.986;12.106;2022-08-21T05:35:34;5.50;;;2.80;;
15818;SDS011;8010;53.986;12.106;2022-08-21T05:38:01;5.57;;;2.80;;
15818;SDS011;8010;53.986;12.106;2022-08-21T05:40:27;4.53;;;3.17;;
15818;SDS011;8010;53.986;12.106;2022-08-21T05:42:53;5.83;;;3.30;;
15818;SDS011;8010;53.986;12.106;2022-08-21T05:45:20;9.37;;;2.90;;
15818;SDS011;8010;53.986;12.106;2022-08-21T05:47:49;6.57;;;3.00;;
15818;SDS011;8010;53.986;12.106;2022-08-21T05:50:15;5.80;;;3.27;;
15818;SDS011;8010;53.986;12.106;2022-08-21T05:52:40;4.67;;;3.00;;
15818;SDS011;8010;53.986;12.106;2022-08-21T05:55:06;6.87;;;3.50;;
15818;SDS011;8010;53.986;12.106;2022-08-21T05:57:31;6.93;;;3.90;;
15818;SDS011;8010;53.986;12.106;2022-08-21T05:59:57;7.33;;;3.30;;
15818;SDS011;8010;53.986;12.106;2022-08-21T06:02:22;4.13;;;3.10;;
15818;SDS011;8010;53.986;12.106;2022-08-21T06:04:48;9.27;;;3.97;;
15818;SDS011;8010;53.986;12.106;2022-08-21T06:07:14;4.93;;;3.30;;
15818;SDS011;8010;53.986;12.106;2022-08-21T06:09:40;11.83;;;3.70;;
15818;SDS011;8010;53.986;12.106;2022-08-21T06:12:06;5.23;;;3.50;;
15818;SDS011;8010;53.986;12.106;2022-08-21T06:14:33;9.53;;;4.10;;
15818;SDS011;8010;53.986;12.106;2022-08-21T06:17:03;6.87;;;3.67;;
15818;SDS011;8010;53.986;12.106;2022-08-21T06:19:30;6.63;;;4.10;;
15818;SDS011;8010;53.986;12.106;2022-08-21T06:21:57;7.53;;;3.90;;
15818;SDS011;8010;53.986;12.106;2022-08-21T06:24:22;7.47;;;4.00;;
15818;SDS011;8010;53.986;12.106;2022-08-21T06:26:48;5.13;;;3.40;;
15818;SDS011;8010;53.986;12.106;2022-08-21T06:29:14;5.80;;;3.73;;
15818;SDS011;8010;53.986;12.106;2022-08-21T06:31:41;6.73;;;3.20;;
15818;SDS011;8010;53.986;12.106;2022-08-21T06:34:07;4.90;;;3.23;;
15818;SDS011;8010;53.986;12.106;2022-08-21T06:36:33;5.80;;;3.40;;
15818;SDS011;8010;53.986;12.106;2022-08-21T06:38:59;4.30;;;3.13;;
15818;SDS011;8010;53.986;12.106;2022-08-21T06:41:25;6.77;;;3.53;;
15818;SDS011;8010;53.986;12.106;2022-08-21T06:43:51;5.30;;;3.27;;
15818;SDS011;8010;53.986;12.106;2022-08-21T06:46:18;5.30;;;2.53;;
15818;SDS011;8010;53.986;12.106;2022-08-21T06:48:43;4.30;;;2.67;;
15818;SDS011;8010;53.986;12.106;2022-08-21T06:51:09;5.23;;;2.50;;
15818;SDS011;8010;53.986;12.106;2022-08-21T06:53:35;4.53;;;2.13;;
15818;SDS011;8010;53.986;12.106;2022-08-21T06:56:00;6.30;;;2.70;;
15818;SDS011;8010;53.986;12.106;2022-08-21T06:58:26;5.77;;;2.27;;
15818;SDS011;8010;53.986;12.106;2022-08-21T07:00:52;5.50;;;2.37;;
15818;SDS011;8010;53.986;12.106;2022-08-21T07:03:22;7.00;;;2.60;;
15818;SDS011;8010;53.986;12.106;2022-08-21T07:05:50;3.97;;;2.20;;
15818;SDS011;8010;53.986;12.106;2022-08-21T07:08:16;4.57;;;2.30;;
15818;SDS011;8010;53.986;12.106;2022-08-21T07:10:42;4.57;;;2.07;;
15818;SDS011;8010;53.986;12.106;2022-08-21T07:13:07;4.73;;;2.30;;
15818;SDS011;8010;53.986;12.106;2022-08-21T07:15:33;4.23;;;2.10;;
15818;SDS011;8010;53.986;12.106;2022-08-21T07:17:59;6.60;;;2.23;;
15818;SDS011;8010;53.986;12.106;2022-08-21T07:20:26;5.63;;;1.73;;
15818;SDS011;8010;53.986;12.106;2022-08-21T07:22:53;5.80;;;1.73;;
15818;SDS011;8010;53.986;12.106;2022-08-21T07:25:19;8.63;;;2.20;;
15818;SDS011;8010;53.986;12.106;2022-08-21T07:27:44;4.03;;;1.40;;
15818;SDS011;8010;53.986;12.106;2022-08-21T07:30:10;4.13;;;1.93;;
15818;SDS011;8010;53.986;12.106;2022-08-21T07:32:36;7.50;;;1.77;;
15818;SDS011;8010;53.986;12.106;2022-08-21T07:35:01;4.97;;;1.80;;
15818;SDS011;8010;53.986;12.106;2022-08-21T07:37:27;4.87;;;1.87;;
15818;SDS011;8010;53.986;12.106;2022-08-21T07:39:53;6.13;;;1.57;;
15818;SDS011;8010;53.986;12.106;2022-08-21T07:42:19;3.90;;;1.50;;
15818;SDS011;8010;53.986;12.106;2022-08-21T07:44:44;3.97;;;1.83;;
15818;SDS011;8010;53.986;12.106;2022-08-21T07:47:10;5.70;;;1.70;;
15818;SDS011;8010;53.986;12.106;2022-08-21T07:49:35;3.43;;;1.43;;
15818;SDS011;8010;53.986;12.106;2022-08-21T07:52:01;3.87;;;1.53;;
15818;SDS011;8010;53.986;12.106;2022-08-21T07:54:27;4.97;;;1.47;;
15818;SDS011;8010;53.986;12.106;2022-08-21T07:56:52;5.30;;;1.63;;
15818;SDS011;8010;53.986;12.106;2022-08-21T07:59:18;6.13;;;1.50;;
15818;SDS011;8010;53.986;12.106;2022-08-21T08:01:43;4.47;;;1.57;;
15818;SDS011;8010;53.986;12.106;2022-08-21T08:04:09;5.90;;;1.67;;
15818;SDS011;8010;53.986;12.106;2022-08-21T08:06:34;3.57;;;1.40;;
15818;SDS011;8010;53.986;12.106;2022-08-21T08:09:00;5.87;;;2.07;;
15818;SDS011;8010;53.986;12.106;2022-08-21T08:11:28;4.43;;;1.40;;
15818;SDS011;8010;53.986;12.106;2022-08-21T08:13:54;3.93;;;1.30;;
15818;SDS011;8010;53.986;12.106;2022-08-21T08:16:22;3.00;;;1.20;;
15818;SDS011;8010;53.986;12.106;2022-08-21T08:18:48;2.80;;;1.43;;
15818;SDS011;8010;53.986;12.106;2022-08-21T08:21:15;4.40;;;1.63;;
15818;SDS011;8010;53.986;12.106;2022-08-21T08:23:41;2.73;;;1.47;;
15818;SDS011;8010;53.986;12.106;2022-08-21T08:26:06;3.10;;;1.30;;
15818;SDS011;8010;53.986;12.106;2022-08-21T08:28:32;2.90;;;1.30;;
15818;SDS011;8010;53.986;12.106;2022-08-21T08:30:59;4.80;;;1.20;;
15818;SDS011;8010;53.986;12.106;2022-08-21T08:33:25;3.40;;;1.27;;
15818;SDS011;8010;53.986;12.106;2022-08-21T08:35:52;6.97;;;1.37;;
15818;SDS011;8010;53.986;12.106;2022-08-21T08:38:18;6.20;;;1.27;;
15818;SDS011;8010;53.986;12.106;2022-08-21T08:41:00;5.40;;;1.70;;
15818;SDS011;8010;53.986;12.106;2022-08-21T08:43:34;5.63;;;1.73;;
15818;SDS011;8010;53.986;12.106;2022-08-21T08:46:02;4.70;;;1.60;;
15818;SDS011;8010;53.986;12.106;2022-08-21T08:48:53;5.30;;;1.30;;
15818;SDS011;8010;53.986;12.106;2022-08-21T08:51:25;4.70;;;1.40;;
15818;SDS011;8010;53.986;12.106;2022-08-21T08:54:07;5.80;;;1.37;;
15818;SDS011;8010;53.986;12.106;2022-08-21T08:56:36;2.27;;;1.30;;
15818;SDS011;8010;53.986;12.106;2022-08-21T08:59:24;4.50;;;1.70;;
15818;SDS011;8010;53.986;12.106;2022-08-21T09:01:51;9.67;;;1.53;;
15818;SDS011;8010;53.986;12.106;2022-08-21T09:04:18;3.33;;;1.50;;
15818;SDS011;8010;53.986;12.106;2022-08-21T09:12:33;7.80;;;2.13;;
15818;SDS011;8010;53.986;12.106;2022-08-21T09:15:23;2.00;;;1.17;;
15818;SDS011;8010;53.986;12.106;2022-08-21T09:18:06;6.97;;;1.57;;
15818;SDS011;8010;53.986;12.106;2022-08-21T09:21:05;6.30;;;1.60;;
15818;SDS011;8010;53.986;12.106;2022-08-21T09:23:55;2.40;;;1.20;;
15818;SDS011;8010;53.986;12.106;2022-08-21T09:26:30;3.10;;;1.50;;
15818;SDS011;8010;53.986;12.106;2022-08-21T09:29:03;7.93;;;1.40;;
15818;SDS011;8010;53.986;12.106;2022-08-21T09:31:34;4.20;;;1.23;;
15818;SDS011;8010;53.986;12.106;2022-08-21T09:34:05;4.80;;;1.30;;
15818;SDS011;8010;53.986;12.106;2022-08-21T09:36:43;5.10;;;1.50;;
15818;SDS011;8010;53.986;12.106;2022-08-21T09:39:11;4.77;;;1.57;;
15818;SDS011;8010;53.986;12.106;2022-08-21T09:41:46;3.40;;;1.20;;
15818;SDS011;8010;53.986;12.106;2022-08-21T09:44:24;4.17;;;1.60;;
15818;SDS011;8010;53.986;12.106;2022-08-21T09:46:54;7.17;;;1.60;;
15818;SDS011;8010;53.986;12.106;2022-08-21T09:49:33;3.37;;;1.30;;
15818;SDS011;8010;53.986;12.106;2022-08-21T09:52:02;5.70;;;1.40;;
15818;SDS011;8010;53.986;12.106;2022-08-21T09:54:31;4.77;;;1.40;;
15818;SDS011;8010;53.986;12.106;2022-08-21T09:57:01;5.83;;;1.60;;
15818;SDS011;8010;53.986;12.106;2022-08-21T09:59:52;3.87;;;1.23;;
15818;SDS011;8010;53.986;12.106;2022-08-21T10:02:26;4.93;;;1.30;;
15818;SDS011;8010;53.986;12.106;2022-08-21T10:05:01;5.23;;;1.83;;
15818;SDS011;8010;53.986;12.106;2022-08-21T10:07:32;5.80;;;1.60;;
15818;SDS011;8010;53.986;12.106;2022-08-21T10:15:18;5.57;;;1.40;;
15818;SDS011;8010;53.986;12.106;2022-08-21T10:21:07;5.30;;;1.37;;
15818;SDS011;8010;53.986;12.106;2022-08-21T10:26:15;5.63;;;1.23;;
15818;SDS011;8010;53.986;12.106;2022-08-21T10:28:59;3.80;;;1.30;;
15818;SDS011;8010;53.986;12.106;2022-08-21T10:31:49;4.50;;;1.23;;
15818;SDS011;8010;53.986;12.106;2022-08-21T10:39:49;3.37;;;1.37;;
15818;SDS011;8010;53.986;12.106;2022-08-21T10:42:28;3.23;;;1.20;;
15818;SDS011;8010;53.986;12.106;2022-08-21T10:48:06;4.57;;;1.53;;
15818;SDS011;8010;53.986;12.106;2022-08-21T10:51:12;4.33;;;1.27;;
15818;SDS011;8010;53.986;12.106;2022-08-21T10:53:41;5.23;;;1.47;;
15818;SDS011;8010;53.986;12.106;2022-08-21T10:56:19;6.57;;;1.97;;
15818;SDS011;8010;53.986;12.106;2022-08-21T10:59:07;3.17;;;1.20;;
15818;SDS011;8010;53.986;12.106;2022-08-21T11:07:25;3.30;;;1.50;;
15818;SDS011;8010;53.986;12.106;2022-08-21T11:10:02;2.87;;;1.33;;
15818;SDS011;8010;53.986;12.106;2022-08-21T11:12:45;3.30;;;1.27;;
15818;SDS011;8010;53.986;12.106;2022-08-21T11:17:52;2.83;;;1.33;;
15818;SDS011;8010;53.986;12.106;2022-08-21T11:20:30;3.37;;;1.40;;
15818;SDS011;8010;53.986;12.106;2022-08-21T11:23:04;4.27;;;1.23;;
15818;SDS011;8010;53.986;12.106;2022-08-21T11:28:32;4.50;;;1.53;;
15818;SDS011;8010;53.986;12.106;2022-08-21T11:36:56;3.23;;;1.30;;
15818;SDS011;8010;53.986;12.106;2022-08-21T11:39:52;2.40;;;1.20;;
15818;SDS011;8010;53.986;12.106;2022-08-21T11:42:47;3.00;;;1.30;;
15818;SDS011;8010;53.986;12.106;2022-08-21T11:48:07;3.43;;;1.10;;
15818;SDS011;8010;53.986;12.106;2022-08-21T11:50:56;4.93;;;1.53;;
15818;SDS011;8010;53.986;12.106;2022-08-21T11:53:24;2.93;;;1.23;;
15818;SDS011;8010;53.986;12.106;2022-08-21T11:56:02;2.60;;;1.13;;
15818;SDS011;8010;53.986;12.106;2022-08-21T11:58:40;5.10;;;1.40;;
15818;SDS011;8010;53.986;12.106;2022-08-21T12:01:11;7.33;;;1.70;;
15818;SDS011;8010;53.986;12.106;2022-08-21T12:03:51;3.87;;;1.67;;
15818;SDS011;8010;53.986;12.106;2022-08-21T12:06:28;4.43;;;1.43;;
15818;SDS011;8010;53.986;12.106;2022-08-21T12:09:06;3.40;;;1.13;;
15818;SDS011;8010;53.986;12.106;2022-08-21T12:14:47;4.30;;;1.30;;
15818;SDS011;8010;53.986;12.106;2022-08-21T12:17:21;3.47;;;1.40;;
15818;SDS011;8010;53.986;12.106;2022-08-21T12:20:02;3.37;;;1.40;;
15818;SDS011;8010;53.986;12.106;2022-08-21T12:25:40;5.60;;;1.50;;
15818;SDS011;8010;53.986;12.106;2022-08-21T12:28:10;4.73;;;1.40;;
15818;SDS011;8010;53.986;12.106;2022-08-21T12:30:38;5.57;;;1.50;;
15818;SDS011;8010;53.986;12.106;2022-08-21T12:36:09;2.40;;;1.10;;
15818;SDS011;8010;53.986;12.106;2022-08-21T12:38:49;3.77;;;1.57;;
15818;SDS011;8010;53.986;12.106;2022-08-21T12:41:19;4.67;;;1.70;;
15818;SDS011;8010;53.986;12.106;2022-08-21T12:43:57;3.77;;;1.30;;
15818;SDS011;8010;53.986;12.106;2022-08-21T12:46:54;3.23;;;1.20;;
15818;SDS011;8010;53.986;12.106;2022-08-21T12:52:02;6.90;;;1.77;;
15818;SDS011;8010;53.986;12.106;2022-08-21T12:54:47;3.00;;;1.23;;
15818;SDS011;8010;53.986;12.106;2022-08-21T12:57:21;3.70;;;1.60;;
15818;SDS011;8010;53.986;12.106;2022-08-21T12:59:56;4.00;;;1.53;;
15818;SDS011;8010;53.986;12.106;2022-08-21T13:02:34;3.57;;;1.40;;
15818;SDS011;8010;53.986;12.106;2022-08-21T13:05:05;3.90;;;1.40;;
15818;SDS011;8010;53.986;12.106;2022-08-21T13:07:34;4.57;;;1.83;;
15818;SDS011;8010;53.986;12.106;2022-08-21T13:10:14;3.23;;;1.20;;
15818;SDS011;8010;53.986;12.106;2022-08-21T13:12:47;3.97;;;1.17;;
15818;SDS011;8010;53.986;12.106;2022-08-21T13:15:14;4.30;;;1.43;;
15818;SDS011;8010;53.986;12.106;2022-08-21T13:17:47;2.17;;;1.17;;
15818;SDS011;8010;53.986;12.106;2022-08-21T13:20:20;2.53;;;1.30;;
15818;SDS011;8010;53.986;12.106;2022-08-21T13:22:48;3.97;;;1.50;;
15818;SDS011;8010;53.986;12.106;2022-08-21T13:25:14;2.33;;;1.10;;
15818;SDS011;8010;53.986;12.106;2022-08-21T13:27:42;4.10;;;1.50;;
15818;SDS011;8010;53.986;12.106;2022-08-21T13:30:11;6.07;;;1.50;;
15818;SDS011;8010;53.986;12.106;2022-08-21T13:32:43;3.90;;;1.30;;
15818;SDS011;8010;53.986;12.106;2022-08-21T13:37:44;2.73;;;1.20;;
15818;SDS011;8010;53.986;12.106;2022-08-21T13:40:13;4.27;;;1.20;;
15818;SDS011;8010;53.986;12.106;2022-08-21T13:43:00;5.03;;;1.50;;
15818;SDS011;8010;53.986;12.106;2022-08-21T13:45:27;3.33;;;1.10;;
15818;SDS011;8010;53.986;12.106;2022-08-21T13:47:57;2.63;;;1.13;;
15818;SDS011;8010;53.986;12.106;2022-08-21T13:50:25;4.97;;;1.20;;
15818;SDS011;8010;53.986;12.106;2022-08-21T13:52:55;3.17;;;1.30;;
15818;SDS011;8010;53.986;12.106;2022-08-21T13:55:21;1.30;;;1.00;;
15818;SDS011;8010;53.986;12.106;2022-08-21T13:57:47;3.10;;;1.43;;
15818;SDS011;8010;53.986;12.106;2022-08-21T14:00:25;2.60;;;1.70;;
15818;SDS011;8010;53.986;12.106;2022-08-21T14:02:53;2.23;;;1.20;;
15818;SDS011;8010;53.986;12.106;2022-08-21T14:05:25;5.67;;;1.43;;
15818;SDS011;8010;53.986;12.106;2022-08-21T14:08:06;2.20;;;1.00;;
15818;SDS011;8010;53.986;12.106;2022-08-21T14:10:45;3.07;;;1.10;;
15818;SDS011;8010;53.986;12.106;2022-08-21T14:16:03;3.43;;;1.20;;
15818;SDS011;8010;53.986;12.106;2022-08-21T14:18:46;2.60;;;1.30;;
15818;SDS011;8010;53.986;12.106;2022-08-21T14:21:22;2.10;;;1.10;;
15818;SDS011;8010;53.986;12.106;2022-08-21T14:24:10;3.93;;;1.33;;
15818;SDS011;8010;53.986;12.106;2022-08-21T14:26:54;3.33;;;1.00;;
15818;SDS011;8010;53.986;12.106;2022-08-21T14:29:28;4.73;;;1.20;;
15818;SDS011;8010;53.986;12.106;2022-08-21T14:32:00;3.27;;;1.30;;
15818;SDS011;8010;53.986;12.106;2022-08-21T14:34:34;5.43;;;1.40;;
15818;SDS011;8010;53.986;12.106;2022-08-21T14:37:00;2.10;;;1.20;;
15818;SDS011;8010;53.986;12.106;2022-08-21T14:39:26;3.10;;;1.10;;
15818;SDS011;8010;53.986;12.106;2022-08-21T14:41:51;2.93;;;1.20;;
15818;SDS011;8010;53.986;12.106;2022-08-21T14:44:18;6.00;;;1.30;;
15818;SDS011;8010;53.986;12.106;2022-08-21T14:46:44;5.73;;;1.13;;
15818;SDS011;8010;53.986;12.106;2022-08-21T14:49:11;3.37;;;1.30;;
15818;SDS011;8010;53.986;12.106;2022-08-21T14:51:37;3.13;;;1.20;;
15818;SDS011;8010;53.986;12.106;2022-08-21T14:54:04;2.83;;;1.13;;
15818;SDS011;8010;53.986;12.106;2022-08-21T14:56:30;1.77;;;0.90;;
15818;SDS011;8010;53.986;12.106;2022-08-21T14:58:58;7.03;;;1.40;;
15818;SDS011;8010;53.986;12.106;2022-08-21T15:01:27;3.00;;;1.20;;
15818;SDS011;8010;53.986;12.106;2022-08-21T15:03:53;2.23;;;1.23;;
15818;SDS011;8010;53.986;12.106;2022-08-21T15:06:19;6.27;;;1.20;;
15818;SDS011;8010;53.986;12.106;2022-08-21T15:08:46;3.13;;;1.33;;
15818;SDS011;8010;53.986;12.106;2022-08-21T15:11:12;2.83;;;1.30;;
15818;SDS011;8010;53.986;12.106;2022-08-21T15:13:43;3.77;;;1.10;;
15818;SDS011;8010;53.986;12.106;2022-08-21T15:16:09;5.00;;;1.33;;
15818;SDS011;8010;53.986;12.106;2022-08-21T15:18:36;3.20;;;1.43;;
15818;SDS011;8010;53.986;12.106;2022-08-21T15:21:02;4.47;;;1.07;;
15818;SDS011;8010;53.986;12.106;2022-08-21T15:23:27;4.17;;;1.37;;
15818;SDS011;8010;53.986;12.106;2022-08-21T15:25:53;3.57;;;1.27;;
15818;SDS011;8010;53.986;12.106;2022-08-21T15:28:19;1.93;;;1.17;;
15818;SDS011;8010;53.986;12.106;2022-08-21T15:30:50;1.97;;;1.00;;
15818;SDS011;8010;53.986;12.106;2022-08-21T15:33:16;2.50;;;1.27;;
15818;SDS011;8010;53.986;12.106;2022-08-21T15:35:42;2.27;;;1.10;;
15818;SDS011;8010;53.986;12.106;2022-08-21T15:38:08;2.80;;;1.33;;
15818;SDS011;8010;53.986;12.106;2022-08-21T15:40:34;4.90;;;1.37;;
15818;SDS011;8010;53.986;12.106;2022-08-21T15:43:01;2.60;;;1.10;;
15818;SDS011;8010;53.986;12.106;2022-08-21T15:45:28;3.60;;;1.27;;
15818;SDS011;8010;53.986;12.106;2022-08-21T15:47:54;2.57;;;1.40;;
15818;SDS011;8010;53.986;12.106;2022-08-21T15:50:20;2.87;;;1.63;;
15818;SDS011;8010;53.986;12.106;2022-08-21T15:52:46;2.73;;;1.23;;
15818;SDS011;8010;53.986;12.106;2022-08-21T15:55:12;4.07;;;1.37;;
15818;SDS011;8010;53.986;12.106;2022-08-21T15:57:38;5.20;;;1.50;;
15818;SDS011;8010;53.986;12.106;2022-08-21T16:00:13;3.37;;;1.40;;
15818;SDS011;8010;53.986;12.106;2022-08-21T16:02:44;5.67;;;1.23;;
15818;SDS011;8010;53.986;12.106;2022-08-21T16:05:12;4.17;;;1.30;;
15818;SDS011;8010;53.986;12.106;2022-08-21T16:07:41;6.43;;;1.30;;
15818;SDS011;8010;53.986;12.106;2022-08-21T16:10:08;3.57;;;1.60;;